Atterbury, Indiana
Current Conditions -  °F | °C
As of 3:53 AM on Friday 28 Nov 2014 (Local Time) from KGEZ Reporting Station
Overcast Overcast  
Wind Chill: -4°   Ceiling: 2500
Heat Index: -4°   Visibility: 10mi
Dew Point: -7°   Wind: 3mph
Humidity: 78%   Direction: 260°W
Pressure: 30.38"   Gusts: NA
Location:  39.3642°N, 85.9645°W
Report Text: KGEZ 280853Z AUTO 26003KT 10SM OVC025 M04/M07 A3038 RMK AO2 SLP298 T10391072 55001
Loading
Personal Weather Stations






























Interactive Weather Map New forecast layout! Learn more

10-Day Weather Forecast

Advertisements
Track Severe Weather on mobile